createdAt,value
2018-10-09T06:27:07.419Z,59.80
2018-10-09T06:29:35.680Z,100.17
2018-10-09T06:32:03.781Z,100.03
2018-10-09T06:34:31.903Z,97.17
2018-10-09T06:37:00.065Z,85.70
2018-10-09T06:39:28.147Z,59.60
2018-10-09T06:41:56.303Z,49.00
2018-10-09T06:44:24.818Z,55.37
2018-10-09T06:46:53.012Z,51.50
2018-10-09T06:49:21.186Z,43.43
2018-10-09T06:51:49.338Z,40.43
2018-10-09T06:54:17.549Z,36.77
2018-10-09T06:56:45.652Z,37.63
2018-10-09T06:59:13.797Z,29.17
2018-10-09T07:01:41.908Z,27.73
2018-10-09T07:04:10.096Z,31.77
2018-10-09T07:06:38.206Z,29.60
2018-10-09T07:09:08.096Z,29.37
2018-10-09T07:11:36.230Z,27.23
2018-10-09T07:14:04.410Z,31.07
2018-10-09T07:16:32.688Z,28.10
2018-10-09T07:19:00.878Z,26.90
2018-10-09T07:21:29.001Z,25.80
2018-10-09T07:23:57.876Z,24.73
2018-10-09T07:26:26.746Z,24.70
2018-10-09T07:28:54.926Z,22.40
2018-10-09T07:31:23.095Z,24.27
2018-10-09T07:33:51.268Z,22.87
2018-10-09T07:36:19.451Z,24.73
2018-10-09T07:38:47.639Z,25.40
2018-10-09T07:41:15.798Z,24.40
2018-10-09T07:43:43.985Z,25.13
2018-10-09T07:46:12.134Z,25.80
2018-10-09T07:48:40.255Z,28.20
2018-10-09T07:51:08.342Z,24.23
2018-10-09T07:53:37.321Z,21.67
2018-10-09T07:56:05.538Z,22.63
2018-10-09T07:58:33.709Z,23.13
2018-10-09T08:01:02.427Z,24.03
2018-10-09T08:03:30.553Z,24.37
2018-10-09T08:05:58.703Z,22.07
2018-10-09T08:08:26.832Z,22.33
2018-10-09T08:10:55.060Z,22.07
2018-10-09T08:13:23.160Z,22.73
2018-10-09T08:15:51.284Z,24.80
2018-10-09T08:18:19.427Z,28.57
2018-10-09T08:20:47.593Z,27.53
2018-10-09T08:23:15.714Z,31.60
2018-10-09T08:25:44.228Z,27.20
2018-10-09T08:28:12.394Z,30.90
2018-10-09T08:30:40.675Z,29.63
2018-10-09T08:33:08.825Z,31.67
2018-10-09T08:35:36.924Z,29.53
2018-10-09T08:38:05.118Z,27.40
2018-10-09T08:40:33.255Z,30.23
2018-10-09T08:43:01.378Z,28.10
2018-10-09T08:45:29.527Z,25.27
2018-10-09T08:47:57.659Z,25.77
2018-10-09T08:50:25.795Z,24.95
2018-10-09T08:52:53.969Z,25.65
2018-10-09T08:55:22.115Z,25.35
2018-10-09T08:57:50.217Z,26.60
2018-10-09T09:00:18.445Z,21.02
2018-10-09T09:02:46.956Z,21.50
2018-10-09T09:05:15.104Z,21.77
2018-10-09T09:07:43.237Z,20.08
2018-10-09T09:10:11.418Z,22.17
2018-10-09T09:12:39.599Z,26.48
2018-10-09T09:15:08.106Z,29.75
2018-10-09T09:17:36.240Z,25.27
2018-10-09T09:20:04.382Z,32.05
2018-10-09T09:22:32.559Z,27.48
2018-10-09T09:25:00.689Z,23.60
2018-10-09T09:27:29.524Z,25.72
2018-10-09T09:29:57.559Z,24.90
2018-10-09T09:32:26.070Z,23.18
2018-10-09T09:34:54.280Z,23.38
2018-10-09T09:37:22.430Z,26.40
2018-10-09T09:39:50.579Z,22.27
2018-10-09T09:42:18.695Z,24.47
2018-10-09T09:44:46.794Z,24.52
2018-10-09T09:47:14.936Z,23.85
2018-10-09T09:49:43.106Z,24.43
2018-10-09T09:52:11.312Z,25.45
2018-10-09T09:54:40.039Z,22.65
2018-10-09T09:57:08.236Z,20.43
2018-10-09T09:59:36.415Z,21.15
2018-10-09T10:02:04.543Z,22.77
2018-10-09T10:04:33.235Z,19.95
2018-10-09T10:07:01.365Z,21.85
2018-10-09T10:09:29.537Z,19.52
2018-10-09T10:11:57.686Z,19.20
2018-10-09T10:14:26.179Z,21.45
2018-10-09T10:16:54.965Z,18.45
2018-10-09T10:19:23.118Z,17.80
2018-10-09T10:21:51.453Z,20.85
2018-10-09T10:24:19.608Z,18.27
2018-10-09T10:26:47.751Z,20.72
2018-10-09T10:29:16.214Z,19.32
2018-10-09T10:31:44.328Z,21.45
2018-10-09T10:34:13.902Z,20.45
2018-10-09T10:36:42.156Z,22.95
2018-10-09T10:39:11.329Z,22.75
2018-10-09T10:41:39.469Z,23.42
2018-10-09T10:44:07.633Z,22.95
2018-10-09T10:46:39.103Z,21.73
2018-10-09T10:49:12.074Z,19.77
2018-10-09T10:51:40.287Z,23.47
2018-10-09T10:54:08.461Z,22.40
2018-10-09T10:56:36.788Z,18.25
2018-10-09T10:59:04.971Z,21.40
2018-10-09T11:01:33.231Z,19.27
2018-10-09T11:04:01.677Z,18.15
2018-10-09T11:06:29.873Z,23.05
2018-10-09T11:08:58.050Z,18.52
2018-10-09T11:11:26.649Z,17.17
2018-10-09T11:13:54.801Z,20.23
2018-10-09T11:16:23.022Z,17.02
2018-10-09T11:18:51.487Z,17.42
2018-10-09T11:21:19.753Z,16.17
2018-10-09T11:23:47.948Z,18.48
2018-10-09T11:26:16.120Z,15.72
2018-10-09T11:28:44.299Z,17.37
2018-10-09T11:31:12.447Z,19.25
2018-10-09T11:33:40.687Z,19.42
2018-10-09T11:36:08.830Z,16.70
2018-10-09T11:38:36.941Z,15.83
2018-10-09T11:41:05.131Z,15.58
2018-10-09T11:43:33.305Z,17.45
2018-10-09T11:46:01.435Z,19.77
2018-10-09T11:48:29.589Z,13.10
2018-10-09T11:50:57.824Z,13.60
2018-10-09T11:53:25.983Z,14.63
2018-10-09T11:55:54.162Z,14.05
2018-10-09T11:58:22.350Z,13.62
2018-10-09T12:00:52.079Z,12.78
2018-10-09T12:03:21.137Z,11.93
2018-10-09T12:05:49.393Z,11.73
2018-10-09T12:08:17.475Z,14.28
2018-10-09T12:10:45.630Z,13.58
2018-10-09T12:13:13.777Z,12.88
2018-10-09T12:15:42.072Z,12.82
2018-10-09T12:18:10.230Z,12.60
2018-10-09T12:20:38.423Z,15.98
2018-10-09T12:23:06.570Z,11.78
2018-10-09T12:25:34.729Z,13.62
2018-10-09T12:28:02.843Z,17.17
2018-10-09T12:30:30.953Z,17.23
2018-10-09T12:32:59.142Z,12.20
2018-10-09T12:35:27.235Z,15.13
2018-10-09T12:37:55.431Z,19.20
2018-10-09T12:40:23.561Z,20.62
2018-10-09T12:42:51.764Z,19.10
2018-10-09T12:45:20.557Z,17.17
2018-10-09T12:47:48.693Z,19.17
2018-10-09T12:50:16.841Z,20.70
2018-10-09T12:52:45.088Z,23.22
2018-10-09T12:55:13.197Z,19.15
2018-10-09T12:57:41.468Z,18.87
2018-10-09T13:00:09.625Z,19.02
2018-10-09T13:02:37.800Z,19.73
2018-10-09T13:05:06.933Z,19.37
2018-10-09T13:07:35.086Z,16.90
2018-10-09T13:10:03.229Z,17.07
2018-10-09T13:12:31.413Z,16.97
2018-10-09T13:14:59.528Z,18.50
2018-10-09T13:17:27.737Z,16.67
2018-10-09T13:19:55.826Z,17.32
2018-10-09T13:22:24.735Z,16.40
2018-10-09T13:24:52.549Z,20.10
2018-10-09T13:27:20.768Z,19.33
2018-10-09T13:29:48.899Z,18.57
2018-10-09T13:32:17.048Z,18.90
2018-10-09T13:34:45.168Z,21.67
2018-10-09T13:37:13.309Z,25.07
2018-10-09T13:39:41.437Z,21.23
2018-10-09T13:42:09.582Z,22.90
2018-10-09T13:44:37.677Z,30.30
2018-10-09T13:47:06.895Z,26.63
2018-10-09T13:49:35.024Z,25.53
2018-10-09T13:52:03.525Z,27.07
2018-10-09T13:54:31.713Z,23.63
2018-10-09T13:56:59.865Z,24.77
2018-10-09T13:59:27.955Z,22.43
2018-10-09T14:01:56.065Z,23.20
2018-10-09T14:04:24.177Z,24.90
2018-10-09T14:06:52.288Z,24.23
2018-10-09T14:09:20.554Z,23.77
2018-10-09T14:11:48.743Z,21.23
2018-10-09T14:14:16.883Z,24.10
2018-10-09T14:16:45.249Z,21.10
2018-10-09T14:19:13.399Z,21.87
2018-10-09T14:21:41.536Z,20.27
2018-10-09T14:24:10.054Z,21.52
2018-10-09T14:26:38.344Z,19.23
2018-10-09T14:29:06.494Z,16.12
2018-10-09T14:31:34.691Z,16.05
2018-10-09T14:34:02.930Z,16.17
2018-10-09T14:36:31.093Z,14.40
2018-10-09T14:38:59.211Z,15.35
2018-10-09T14:41:27.347Z,16.15
2018-10-09T14:43:55.668Z,17.48
2018-10-09T14:46:23.789Z,16.95
2018-10-09T14:48:51.936Z,16.37
2018-10-09T14:51:20.003Z,19.57
2018-10-09T14:53:48.208Z,22.00
2018-10-09T14:56:16.306Z,18.40
2018-10-09T14:58:44.457Z,18.27
2018-10-09T15:01:13.199Z,17.60
2018-10-09T15:03:41.312Z,21.17
2018-10-09T15:06:09.451Z,19.23
2018-10-09T15:08:37.600Z,21.00
2018-10-09T15:11:05.690Z,22.77
2018-10-09T15:13:33.839Z,23.60
2018-10-09T15:16:02.060Z,18.97
2018-10-09T15:18:30.188Z,19.97
2018-10-09T15:20:58.279Z,17.10
2018-10-09T15:23:26.437Z,21.83
2018-10-09T15:25:54.542Z,20.63
2018-10-09T15:28:22.734Z,21.37
2018-10-09T15:30:50.899Z,22.00
2018-10-09T15:33:19.031Z,19.03
2018-10-09T15:35:47.199Z,18.23
2018-10-09T15:38:15.300Z,20.67
2018-10-09T15:40:43.582Z,23.77
2018-10-09T15:43:11.733Z,21.53
2018-10-09T15:45:39.849Z,22.30
2018-10-09T15:48:07.978Z,19.43
2018-10-09T15:50:36.114Z,16.63
2018-10-09T15:53:04.425Z,17.87
2018-10-09T15:55:32.615Z,17.03
2018-10-09T15:58:00.819Z,20.43
2018-10-09T16:00:33.180Z,19.30
2018-10-09T16:03:01.298Z,16.53
2018-10-09T16:05:29.513Z,19.43
2018-10-09T16:07:57.635Z,18.00
2018-10-09T16:10:25.791Z,19.90
2018-10-09T16:12:53.901Z,20.33
2018-10-09T16:15:22.036Z,21.37
2018-10-09T16:17:50.177Z,18.47
2018-10-09T16:20:18.309Z,14.87
2018-10-09T16:22:46.415Z,16.13
2018-10-09T16:25:14.558Z,20.10
2018-10-09T16:27:42.708Z,18.00
2018-10-09T16:30:10.798Z,23.37
2018-10-09T16:32:39.014Z,26.60
2018-10-09T16:35:07.078Z,24.50
2018-10-09T16:37:35.353Z,23.47
2018-10-09T16:40:03.744Z,21.97
2018-10-09T16:42:31.844Z,25.10
2018-10-09T16:44:59.976Z,24.93
2018-10-09T16:47:28.189Z,22.47
2018-10-09T16:49:56.201Z,22.70
2018-10-09T16:52:24.319Z,28.63
2018-10-09T16:54:52.425Z,28.80
2018-10-09T16:57:20.481Z,25.20
2018-10-09T16:59:48.549Z,23.53
2018-10-09T17:02:16.624Z,28.43
2018-10-09T17:04:44.777Z,26.47
2018-10-09T17:07:12.852Z,25.30
2018-10-09T17:09:40.962Z,23.10
2018-10-09T17:12:09.019Z,26.23
2018-10-09T17:14:37.114Z,21.77
2018-10-09T17:17:05.365Z,26.73
2018-10-09T17:19:33.512Z,27.40
2018-10-09T17:22:01.549Z,30.23
2018-10-09T17:24:29.626Z,36.90
2018-10-09T17:26:57.882Z,30.53
2018-10-09T17:29:25.932Z,26.20
2018-10-09T17:31:54.010Z,21.20
2018-10-09T17:34:22.097Z,26.73
2018-10-09T17:36:50.237Z,34.30
2018-10-09T17:39:18.336Z,36.97
2018-10-09T17:41:46.397Z,35.80
2018-10-09T17:44:15.477Z,33.80
2018-10-09T17:46:43.618Z,49.07
2018-10-09T17:49:11.649Z,36.33
2018-10-09T17:51:39.772Z,42.90
2018-10-09T17:54:07.839Z,36.50
2018-10-09T17:56:35.924Z,26.27
2018-10-09T17:59:04.017Z,25.80
2018-10-09T18:01:32.128Z,19.93
2018-10-09T18:04:00.222Z,34.10
2018-10-09T18:06:28.289Z,38.57
2018-10-09T18:08:56.384Z,43.37
2018-10-09T18:11:24.393Z,44.67
2018-10-09T18:13:52.453Z,44.13
2018-10-09T18:16:20.601Z,41.43
2018-10-09T18:18:48.684Z,46.00
2018-10-09T18:21:16.797Z,38.93
2018-10-09T18:23:44.898Z,31.90
2018-10-09T18:26:12.965Z,40.20
2018-10-09T18:28:41.030Z,46.23
2018-10-09T18:31:09.105Z,38.67
2018-10-09T18:33:37.188Z,38.33
2018-10-09T18:36:05.276Z,39.10
2018-10-09T18:38:33.365Z,38.70
2018-10-09T18:41:01.520Z,49.30
2018-10-09T18:43:29.579Z,75.33
2018-10-09T18:45:57.869Z,67.37
2018-10-09T18:48:25.953Z,66.83
2018-10-09T18:50:54.042Z,71.87
2018-10-09T18:53:22.150Z,58.40
2018-10-09T18:55:50.231Z,44.50
2018-10-09T18:58:18.765Z,54.67
2018-10-09T19:00:47.249Z,64.50
2018-10-09T19:03:15.334Z,62.77
2018-10-09T19:05:43.420Z,96.97
2018-10-09T19:08:11.538Z,101.63
2018-10-09T19:10:39.671Z,112.17
2018-10-09T19:13:07.756Z,101.63
2018-10-09T19:15:35.938Z,95.27
2018-10-09T19:18:04.113Z,71.53
2018-10-09T19:20:32.206Z,54.63
2018-10-09T19:23:00.301Z,30.07
2018-10-09T19:25:28.384Z,20.73
2018-10-09T19:27:56.483Z,54.33
2018-10-09T19:30:24.592Z,60.53
2018-10-09T19:32:52.748Z,51.67
2018-10-09T19:35:20.745Z,44.17
2018-10-09T19:37:48.858Z,45.93
2018-10-09T19:40:17.829Z,44.37
2018-10-09T19:42:45.903Z,44.67
2018-10-09T19:45:13.983Z,59.97
2018-10-09T19:47:42.097Z,48.53
2018-10-09T19:50:10.185Z,72.57
2018-10-09T19:52:38.267Z,88.93
2018-10-09T19:55:06.525Z,108.10
2018-10-09T19:57:34.625Z,126.77
2018-10-09T20:00:02.695Z,77.63
2018-10-09T20:02:30.995Z,77.17
2018-10-09T20:04:59.104Z,77.10
2018-10-09T20:07:27.192Z,65.13
2018-10-09T20:09:55.301Z,63.33
2018-10-09T20:12:23.446Z,52.40
2018-10-09T20:14:51.537Z,40.00
2018-10-09T20:17:19.633Z,43.00
2018-10-09T20:19:47.785Z,43.00
2018-10-09T20:22:15.879Z,59.50
2018-10-09T20:24:44.068Z,66.90
2018-10-09T20:27:12.054Z,67.43
2018-10-09T20:29:40.174Z,72.07
2018-10-09T20:32:08.242Z,46.83
2018-10-09T20:34:36.344Z,39.87
2018-10-09T20:37:04.472Z,49.37
2018-10-09T20:39:32.557Z,44.13
2018-10-09T20:42:01.422Z,60.27
2018-10-09T20:44:29.454Z,81.20
2018-10-09T20:46:57.521Z,86.10
2018-10-09T20:49:25.613Z,85.80
2018-10-09T20:51:53.701Z,95.63
2018-10-09T20:54:21.765Z,95.50
2018-10-09T20:56:49.853Z,134.30
2018-10-09T20:59:17.952Z,135.27
2018-10-09T21:01:46.058Z,106.63
2018-10-09T21:04:15.214Z,71.10
2018-10-09T21:06:43.315Z,56.50
2018-10-09T21:09:11.435Z,39.83
2018-10-09T21:11:39.502Z,17.57
2018-10-09T21:14:07.601Z,12.40
2018-10-09T21:16:35.705Z,32.87
2018-10-09T21:19:03.765Z,34.80
2018-10-09T21:21:32.071Z,35.00
2018-10-09T21:24:00.235Z,26.93
2018-10-09T21:26:28.366Z,32.93
2018-10-09T21:28:56.486Z,41.47
2018-10-09T21:31:24.589Z,64.00
2018-10-09T21:33:52.699Z,70.50
2018-10-09T21:36:20.830Z,65.03
2018-10-09T21:38:48.919Z,64.33
2018-10-09T21:41:17.052Z,55.83
2018-10-09T21:43:45.150Z,66.63
2018-10-09T21:46:14.242Z,94.07
2018-10-09T21:48:42.348Z,67.67
2018-10-09T21:51:10.457Z,85.20
2018-10-09T21:53:39.569Z,93.50
2018-10-09T21:56:07.674Z,59.03
2018-10-09T21:58:35.763Z,50.87
2018-10-09T22:01:11.189Z,53.97
2018-10-09T22:03:39.468Z,57.23
2018-10-09T22:06:07.770Z,75.77
2018-10-09T22:08:35.892Z,99.10
2018-10-09T22:11:03.986Z,158.73
2018-10-09T22:13:32.065Z,212.93
2018-10-09T22:16:00.137Z,136.23
2018-10-09T22:18:28.223Z,144.37
2018-10-09T22:20:56.346Z,145.93
2018-10-09T22:23:24.527Z,160.30
2018-10-09T22:25:52.586Z,138.07
2018-10-09T22:28:20.682Z,209.07
2018-10-09T22:30:48.774Z,117.27
2018-10-09T22:33:16.899Z,112.53
2018-10-09T22:35:45.013Z,93.93
2018-10-09T22:38:13.081Z,78.73
2018-10-09T22:40:41.159Z,80.07
2018-10-09T22:43:09.247Z,76.43
2018-10-09T22:45:37.371Z,69.33
2018-10-09T22:48:05.458Z,110.30
2018-10-09T22:50:33.573Z,76.33
2018-10-09T22:53:01.737Z,66.10
2018-10-09T22:55:29.790Z,51.87
2018-10-09T22:57:58.082Z,39.30
2018-10-09T23:00:26.144Z,46.70
2018-10-09T23:02:54.250Z,47.30
2018-10-09T23:05:22.326Z,59.23
2018-10-09T23:07:50.421Z,60.70
2018-10-09T23:10:18.571Z,67.60
2018-10-09T23:12:46.713Z,100.07
2018-10-09T23:15:14.872Z,148.43
2018-10-09T23:17:42.998Z,195.90
2018-10-09T23:20:11.410Z,218.77
2018-10-09T23:22:39.516Z,225.60
2018-10-09T23:25:07.578Z,285.77
2018-10-09T23:27:35.643Z,270.73
2018-10-09T23:30:03.791Z,208.97
2018-10-09T23:32:32.107Z,125.50
2018-10-09T23:35:00.190Z,129.60
2018-10-09T23:37:28.254Z,207.97
2018-10-09T23:39:56.350Z,216.20
2018-10-09T23:42:24.418Z,222.23
2018-10-09T23:44:52.537Z,265.33
2018-10-09T23:47:20.625Z,300.03
2018-10-09T23:49:48.750Z,269.40
2018-10-09T23:52:16.887Z,309.63
2018-10-09T23:54:44.966Z,330.83
2018-10-09T23:57:13.037Z,277.70
2018-10-09T23:59:41.102Z,271.23
